AirNav   Air Wisconsin pilot careers
 
 1619 users online  

K62 Gene Snyder Airport
Falmouth, Kentucky, USA

GOING TO FALMOUTH?


FAA INFORMATION EFFECTIVE 24 MAY 2018

Location

FAA Identifier: K62
Lat/Long: 38-42-14.7000N / 084-23-30.6000W
38-42.245000N / 084-23.510000W
38.7040833 / -84.3918333
(estimated)
Elevation: 899.4 ft. / 274 m (estimated)
Variation: 06W (2015)
From city: 4 miles NW of FALMOUTH, KY
Time zone: UTC -4 (UTC -5 during Standard Time)
Zip code: 41040

Airport Operations

Airport use: Open to the public
Activation date: 10/1984
Control tower: no
ARTCC: INDIANAPOLIS CENTER
FSS: LOUISVILLE FLIGHT SERVICE STATION
NOTAMs facility: LOU (NOTAM-D service available)
Attendance: UNATNDD
Wind indicator: lighted
Segmented circle: yes
Lights: ACTVT MIRL RY 03/21, PAPI RY 03 & 21 - CTAF.
Beacon: white-green (lighted land airport)
Operates sunset to sunrise.

Airport Communications

CTAF/UNICOM: 122.7
WX AWOS-3: 123.825 (859-654-1345)
CINCINNATI APPROACH: 121.0
CINCINNATI DEPARTURE: 121.0

Nearby radio navigation aids

VOR radial/distance  VOR name  Freq  Var
FLMr315/5.0FALMOUTH VOR/DME117.0004W
CVGr146/23.7CINCINNATI VORTAC117.3004W
FFTr041/(39.6)FRANKFORT VOR109.4003W

 
NDB name  Hdg/Dist  Freq  Var  ID
SPORTYS204/23.824504WPWF .--. .-- ..-.
CINCINNATI189/27.433504WLUK .-.. ..- -.-
MADEIRA187/31.237904WMDE -- -.. .
WEST UNION261/39.835904WAMT .- -- -

Airport Services

Fuel available: 100LL
Parking: hangars and tiedowns
Bottled oxygen: NONE
Bulk oxygen: NONE

Runway Information

Runway 3/21

Dimensions: 3994 x 75 ft. / 1217 x 23 m
Surface: asphalt, in good condition
Weight bearing capacity: 
Single wheel: 12.5
Runway edge lights: medium intensity
RUNWAY 3  RUNWAY 21
Latitude: 38-41.947497N38-42.541563N
Longitude: 084-23.689598W084-23.328748W
Elevation: 899.2 ft.884.7 ft.
Traffic pattern: leftleft
Runway heading: 031 magnetic, 025 true211 magnetic, 205 true
Displaced threshold: 100 ft.no
Declared distances: TORA:3994 TODA:3994 ASDA:3994 LDA:3894TORA:3994 TODA:3994 ASDA:3894 LDA:3894
Markings: nonprecision, in good conditionnonprecision, in good condition
Visual slope indicator: 4-light PAPI on left (3.50 degrees glide path)4-light PAPI on left (3.50 degrees glide path)
Touchdown point: yes, no lightsyes, no lights
Obstructions: 75 ft. trees, 782 ft. from runway, 339 ft. right of centerline, 7:1 slope to clear
9:1 SLOPE TO DSPLCD THLD
9 ft. tree, 206 ft. from runway, 199 ft. left of centerline

Airport Ownership and Management from official FAA records

Ownership: Publicly-owned
Owner: DAN BELL, ARPT BOARD CHAIRMAN
400 GENE SNYDER AIRPORT DRIVE
FALMOUTH, KY 41040
Phone 859-654-1200
Manager: DAN BELL
400 GENE SNYDER AIRPORT DRIVE
FALMOUTH, KY 41040
Phone 859-654-1200

Airport Operational Statistics

Aircraft based on the field: 26
Single engine airplanes: 25
Multi engine airplanes: 1
    
Aircraft operations: avg 92/week *
55% transient general aviation
38% local general aviation
4% air taxi
3% military
* for 12-month period ending 03 June 2015

Instrument Procedures

NOTE: All procedures below are presented as PDF files. If you need a reader for these files, you should download the free Adobe Reader.

NOT FOR NAVIGATION. Please procure official charts for flight.
FAA instrument procedures published for use from 24 May 2018 at 0901Z to 21 June 2018 at 0900Z.

 
STARs - Standard Terminal Arrivals
BRUSH TWO   2 pages: [1] [2] (300KB)
CINCE SEVEN   download (281KB)
HARDU THREE   2 pages: [1] [2] (315KB)
HEDEE THREE **CHANGED**   2 pages: [1] [2] (244KB)
SHELBYVILLE SIX   2 pages: [1] [2] (351KB)
 
IAPs - Instrument Approach Procedures
RNAV (GPS) RWY 21 **CHANGED**   download (189KB)
VOR-A **CHANGED**   download (136KB)
NOTE: Special Take-Off Minimums/Departure Procedures apply   download (126KB)

Other nearby airports with instrument procedures:

0I8 - Cynthiana-Harrison County Airport (21 nm S)
KLUK - Cincinnati Municipal Airport-Lunken Field (24 nm N)
I69 - Clermont County Airport (24 nm N)
KCVG - Cincinnati/Northern Kentucky International Airport (24 nm NW)
KGEO - Brown County Airport (26 nm NE)
 
Loc | Ops | Rwys | IFR | FBO | Links
Com | Nav | Svcs | Stats | Notes

AirNav Hotels Sweepstakes
 
Area around K62 (Gene Snyder Airport)
 
Road maps at: MapQuest Bing Google
 
Aerial photo
WARNING: Photo may not be current or correct
Aerial photo of K62 (Gene Snyder Airport)
Photo courtesy of Charlie Pyles, airpixphoto.com
Photo taken 16-Oct-2010
looking northeast.

Do you have a better or more recent aerial photo of Gene Snyder Airport that you would like to share? If so, please send us your photo.

 
Sectional chart

 
Airport distance calculator
Flying to Gene Snyder Airport? Find the distance to fly.

From to K62

Sunrise and sunset
Times for 19-Jun-2018
 Local
(UTC-4)
 Zulu
(UTC)
Morning civil twilight05:4209:42
Sunrise06:1410:14
Sunset21:0401:04
Evening civil twilight21:3601:36

Current date and time
Zulu (UTC)  19-Jun-2018 17:27:54
Local (UTC-4)  19-Jun-2018 13:27:54
 
METAR
KLUK 
24nm N 
191653Z 26011KT 10SM SCT039 32/24 A2997 RMK AO2 SLP143 T03220244
KI69 
24nm N 
191717Z AUTO 26008G14KT 10SM SCT037 SCT048 BKN055 32/21 A2999 RMK AO2 T03240214
KCVG 
24nm NW 
191652Z 27009KT 10SM FEW032 BKN038 32/22 A3000 RMK AO2 SLP145 MDT CU ALQDS T03170222
K27K 
28nm S 
191715Z AUTO 30007KT 10SM SCT031 SCT044 30/22 A3002 RMK AO1
KFGX 
32nm E 
191715Z AUTO 23008KT 10SM SCT033 SCT047 SCT060 28/21 A3001 RMK AO2 T02800208
KI67 
38nm NW 
191715Z AUTO 30008KT 10SM SCT036 31/21 A2996 RMK AO1
KFFT 
39nm SW 
191653Z AUTO 27007KT 10SM FEW038 32/22 A3001 RMK AO2 SLP152 T03220217
KHAO 
40nm N 
191653Z AUTO 23009KT 10SM SCT039 BKN065 32/24 A2997 RMK AO2 SLP142 T03220244
KLEX 
41nm S 
191654Z 28008G14KT 10SM SCT034 SCT044 32/22 A3003 RMK AO2 SLP157 T03170222
KIOB 
43nm SE 
191715Z AUTO 26007KT 10SM SCT030 SCT036 BKN045 31/23 A3003 RMK AO2
TAF
KLUK 
24nm N 
191501Z 1915/2012 25007KT P6SM SCT060 FM191800 27007KT P6SM VCTS BKN040CB FM192000 27007KT 5SM -SHRA VCTS OVC040CB FM200000 27004KT P6SM VCSH BKN040 BKN100 FM200600 22004KT P6SM SCT050 BKN100
KCVG 
24nm NW 
191501Z 1915/2018 26009KT P6SM FEW035 SCT050 FM191800 27007KT P6SM VCTS BKN040CB FM192000 27007KT 5SM -SHRA VCTS OVC040CB FM200000 27004KT P6SM VCSH BKN040 BKN100 FM200600 22004KT P6SM SCT050 BKN100 FM201500 25006KT P6SM VCSH BKN040
NOTAMs
Click for the latest NOTAMs
NOTAMs are issued by the DoD/FAA and will open in a separate window not controlled by AirNav.

 

 
 

FBO, Fuel Providers, and Aircraft Ground Support

  
 Business Name 
 
 Contact 
 
 Services / Description 
 
Fuel Prices
 
Comments
  
Gene Snyder Airport 859-654-1200
no information available

If you are affiliated with Gene Snyder Airport and would like to show here your services, contact info, web link, logo, and more, click here
100LL
SS $4.65 
 Updated 18-Jun-2018
 
   1 read write
SS=Self service
Update Fuel Prices
 

Would you like to see your business listed on this page?

 If your business provides an interesting product or service to pilots, flight crews, aircraft, or users of the Gene Snyder Airport, you should consider listing it here.  To start the listing process, click on the button below
 
Add a business
 

Other Pages about Gene Snyder Airport

Update a link
 
Copyright © AirNav, LLC. All rights reserved. Privacy Policy  Contact